Marine Ace — JD3235 — position and weather

sailwx.info

Track history (hours):
 
Tides and Currents Weather Stations Pressure Air Temp Water Temp Dewpoint Dewpoint Depression Visibility Wind Speed Wind Dir Waves Ship Positions

Marine Ace

Last reported at 2018-Feb-25 01:30 UTC. Time now 2018-Feb-25 01:55 UTC.
Position N 34°47' E 136°44'.

Length 68 m; draft 4.3 m.

Type: Tanker. MMSI: 431002799.

Date/timePositionNaut miles runAvg speedWind from/ knotsBaromVisibWave heightAir tempDewpointWater temp
2018-Feb-25 01:30N 34°47' E 136°44'612.2
2018-Feb-25 00:59N 34°42' E 136°50'812.1
2018-Feb-25 00:21N 34°37' E 136°56'412.2
2018-Feb-24 23:59N 34°34' E 137°00'2710.7
2018-Feb-24 21:25N 34°08' E 136°48'89 9.4
2018-Feb-24 11:55N 33°50' E 135°03'512.8
2018-Feb-24 11:30N 33°54' E 134°59'612.6
2018-Feb-24 11:00N 33°59' E 134°54'712.9
2018-Feb-24 10:30N 34°04' E 134°49'612.9
2018-Feb-24 10:00N 34°08' E 134°44'814.0
2018-Feb-24 09:27N 34°15' E 134°38'612.8
2018-Feb-24 09:00N 34°17' E 134°32'712.6
2018-Feb-24 08:29N 34°20' E 134°25'612.6
2018-Feb-24 08:00N 34°22' E 134°18'  
2018-Feb-20 12:22N 33°60' E 132°45'612.2
2018-Feb-20 11:50N 33°55' E 132°40'412.0
2018-Feb-20 11:30N 33°54' E 132°35'1012.1
2018-Feb-20 10:41N 33°50' E 132°24'511.9
2018-Feb-20 10:16N 33°50' E 132°18'511.8
2018-Feb-20 09:50N 33°49' E 132°12'511.4
2018-Feb-20 09:22N 33°47' E 132°06'1411.5
2018-Feb-20 08:10N 33°46' E 131°50'212.3
2018-Feb-20 07:58N 33°47' E 131°47'612.7
2018-Feb-20 07:29N 33°48' E 131°40'612.8
2018-Feb-20 07:00N 33°49' E 131°33'612.6
2018-Feb-20 06:30N 33°51' E 131°25'612.6
2018-Feb-20 06:00N 33°52' E 131°18'611.6
2018-Feb-20 05:30N 33°54' E 131°11'0 0.4
2018-Feb-20 04:58N 33°54' E 131°11'0 1.0
2018-Feb-20 04:30N 33°55' E 131°12'2 3.0
2018-Feb-20 03:59N 33°56' E 131°11'0 0.0
2018-Feb-20 03:29N 33°56' E 131°11'0 0.0
2018-Feb-20 02:59N 33°56' E 131°11'0 0.0
2018-Feb-20 02:29N 33°56' E 131°11'0 0.0
2018-Feb-20 01:56N 33°56' E 131°11'0 0.0
2018-Feb-20 01:29N 33°56' E 131°11'0 0.0
2018-Feb-20 00:59N 33°56' E 131°11'0 0.0
2018-Feb-20 00:23N 33°56' E 131°11'0 0.8
2018-Feb-20 00:00N 33°56' E 131°11'2 3.2
2018-Feb-19 23:30N 33°54' E 131°11'1 3.0
2018-Feb-19 23:00N 33°55' E 131°09'4 7.6
2018-Feb-19 22:30N 33°58' E 131°10'0 0.4
2018-Feb-19 21:58N 33°58' E 131°10'0 0.0
2018-Feb-19 21:22N 33°58' E 131°10'0 0.0
2018-Feb-19 20:58N 33°58' E 131°10'0 0.0
2018-Feb-19 20:28N 33°58' E 131°10'0 0.0
2018-Feb-19 19:58N 33°58' E 131°10'0 0.0
2018-Feb-19 19:28N 33°58' E 131°10'0 0.0
2018-Feb-19 18:58N 33°58' E 131°10'0 0.0
2018-Feb-19 18:25N 33°58' E 131°10'0 0.0
2018-Feb-19 17:52N 33°58' E 131°10'0 0.0
2018-Feb-19 17:28N 33°58' E 131°10'0 0.0
2018-Feb-19 16:58N 33°58' E 131°10'0 0.0
2018-Feb-19 16:28N 33°58' E 131°10'0 0.0
2018-Feb-19 15:52N 33°58' E 131°10'0 0.0
2018-Feb-19 15:28N 33°58' E 131°10'0 0.0
2018-Feb-19 14:58N 33°58' E 131°10'0 0.0
2018-Feb-19 14:28N 33°58' E 131°10'0 0.0
2018-Feb-19 13:58N 33°58' E 131°10'0 0.0
2018-Feb-19 13:28N 33°58' E 131°10'0 0.0
2018-Feb-19 12:58N 33°58' E 131°10'0 0.0
2018-Feb-19 12:28N 33°58' E 131°10'0 0.0
2018-Feb-19 11:58N 33°58' E 131°10'0 0.0
2018-Feb-19 11:28N 33°58' E 131°10'0 0.0
2018-Feb-19 10:58N 33°58' E 131°10'0 0.0
2018-Feb-19 10:28N 33°58' E 131°10'0 0.0
2018-Feb-19 09:58N 33°58' E 131°10'0 0.0
2018-Feb-19 09:28N 33°58' E 131°10'0 0.0
2018-Feb-19 08:58N 33°58' E 131°10'0 0.0
2018-Feb-19 08:25N 33°58' E 131°10'0 0.0
2018-Feb-19 07:58N 33°58' E 131°10'0 0.0
2018-Feb-19 07:28N 33°58' E 131°10'0 0.0
2018-Feb-19 06:58N 33°58' E 131°10'0 0.0
2018-Feb-19 06:28N 33°58' E 131°10'0 0.0
2018-Feb-19 05:58N 33°58' E 131°10'0 0.0
2018-Feb-19 05:28N 33°58' E 131°10'0 0.0
2018-Feb-19 04:58N 33°58' E 131°10'0 0.0
2018-Feb-19 04:28N 33°58' E 131°10'0 0.0
2018-Feb-19 03:58N 33°58' E 131°10'0 0.0
2018-Feb-19 03:28N 33°58' E 131°10'0 0.0
2018-Feb-19 02:58N 33°58' E 131°10'0 0.0
2018-Feb-19 02:28N 33°58' E 131°10'0 0.0
2018-Feb-19 01:58N 33°58' E 131°10'0 0.0
2018-Feb-19 01:28N 33°58' E 131°10'0 0.0
2018-Feb-19 00:58N 33°58' E 131°10'0 0.0
2018-Feb-19 00:25N 33°58' E 131°10'0 0.0
2018-Feb-18 23:58N 33°58' E 131°10'0 0.0
2018-Feb-18 23:28N 33°58' E 131°10'0 0.0
2018-Feb-18 23:00N 33°58' E 131°10'4 7.7
2018-Feb-18 22:30N 33°55' E 131°09'713.1
2018-Feb-18 22:00N 33°51' E 131°16'713.2
2018-Feb-18 21:30N 33°51' E 131°24'712.9
2018-Feb-18 20:59N 33°50' E 131°32'612.8
2018-Feb-18 20:30N 33°49' E 131°39'812.3
2018-Feb-18 19:54N 33°47' E 131°48'512.4
2018-Feb-18 19:30N 33°46' E 131°54'612.2
2018-Feb-18 19:00N 33°46' E 132°01'713.3
2018-Feb-18 18:30N 33°48' E 132°09'713.3
2018-Feb-18 18:00N 33°50' E 132°16'1213.5
2018-Feb-18 17:05N 33°53' E 132°31'113.3
2018-Feb-18 17:00N 33°53' E 132°32'612.9
2018-Feb-18 16:30N 33°56' E 132°39'612.5
2018-Feb-18 16:00N 34°00' E 132°45'7611.2
2018-Feb-18 09:13N 34°32' E 134°08'1112.1
2018-Feb-18 08:17N 34°38' E 134°20'511.9
2018-Feb-18 07:53N 34°40' E 134°25'412.0
2018-Feb-18 07:30N 34°42' E 134°30'510.5
2018-Feb-18 06:59N 34°46' E 134°35'0 0.0
2018-Feb-18 03:47N 34°46' E 134°35'1 3.5
2018-Feb-18 03:30N 34°45' E 134°36'711.8
2018-Feb-18 02:53N 34°38' E 134°38'511.9
2018-Feb-18 02:30N 34°33' E 134°37'611.6
2018-Feb-18 02:00N 34°28' E 134°38'611.7
2018-Feb-18 01:30N 34°22' E 134°38'711.9
2018-Feb-18 00:57N 34°15' E 134°39'812.6
2018-Feb-18 00:21N 34°09' E 134°44'411.8
2018-Feb-18 00:00N 34°06' E 134°47'611.9
2018-Feb-17 23:30N 34°01' E 134°52'611.8
2018-Feb-17 23:00N 33°57' E 134°57'611.7
2018-Feb-17 22:30N 33°53' E 135°01'611.4
2018-Feb-17 22:00N 33°48' E 135°06'96 8.2
2018-Feb-17 10:25N 34°31' E 136°50'1211.8
2018-Feb-17 09:26N 34°42' E 136°45'512.2
2018-Feb-17 09:00N 34°47' E 136°43'612.1
2018-Feb-17 08:31N 34°52' E 136°42'510.2
2018-Feb-17 08:01N 34°57' E 136°39'0 0.8
2018-Feb-17 07:31N 34°57' E 136°38'0 0.0
2018-Feb-17 05:46N 34°57' E 136°38'0 0.0
2018-Feb-17 05:28N 34°57' E 136°38'0 0.0
2018-Feb-17 04:58N 34°57' E 136°38'0 0.0
2018-Feb-17 04:16N 34°57' E 136°38'0 0.0
2018-Feb-17 03:56N 34°57' E 136°38'1 3.4
2018-Feb-17 03:30N 34°57' E 136°40'1 3.0
2018-Feb-17 03:00N 34°55' E 136°41'611.5
2018-Feb-17 02:30N 34°50' E 136°41'611.1
2018-Feb-17 02:00N 34°45' E 136°44'510.2
2018-Feb-17 01:30N 34°40' E 136°46'510.6
2018-Feb-17 01:00N 34°35' E 136°47'6 9.6
2018-Feb-17 00:21N 34°30' E 136°52'97 8.5
2018-Feb-16 12:56N 33°50' E 135°04'512.4
2018-Feb-16 12:30N 33°54' E 134°60'612.3
2018-Feb-16 12:00N 33°59' E 134°55'612.1
2018-Feb-16 11:30N 34°03' E 134°50'612.4
2018-Feb-16 10:59N 34°08' E 134°44'611.7
2018-Feb-16 10:29N 34°13' E 134°40'611.0
2018-Feb-16 09:58N 34°18' E 134°37'510.6
2018-Feb-16 09:30N 34°22' E 134°36'3 5.9
2018-Feb-16 09:00N 34°21' E 134°33'611.5
2018-Feb-16 08:30N 34°20' E 134°26'611.6
2018-Feb-16 08:00N 34°22' E 134°19'81 3.9
2018-Feb-15 11:16N 34°00' E 132°45'413.1
2018-Feb-15 10:57N 33°57' E 132°42'613.3
2018-Feb-15 10:30N 33°54' E 132°36'1112.6
2018-Feb-15 09:40N 33°50' E 132°24'1112.5
2018-Feb-15 08:49N 33°49' E 132°12'812.0
2018-Feb-15 08:12N 33°45' E 132°04'911.8
2018-Feb-15 07:25N 33°46' E 131°53'512.0
2018-Feb-15 07:00N 33°47' E 131°47'612.1
2018-Feb-15 06:29N 33°48' E 131°40'612.2
2018-Feb-15 06:00N 33°49' E 131°33'612.3
2018-Feb-15 05:30N 33°50' E 131°25'612.2
2018-Feb-15 05:00N 33°51' E 131°18'612.0
2018-Feb-15 04:30N 33°55' E 131°12'2 3.6
2018-Feb-15 04:00N 33°56' E 131°11'0 0.0
2018-Feb-15 03:29N 33°56' E 131°11'0 0.0
2018-Feb-15 02:59N 33°56' E 131°11'0 0.0
2018-Feb-15 02:29N 33°56' E 131°11'0 0.0
2018-Feb-15 01:59N 33°56' E 131°11'  
Track history (hours):
 
Tides and Currents Weather Stations Pressure Air Temp Water Temp Dewpoint Dewpoint Depression Visibility Wind Speed Wind Dir Waves Ship Positions

Marine Ace

Last reported at 2018-Feb-25 01:30 UTC. Time now 2018-Feb-25 01:55 UTC.
Position N 34°47' E 136°44'.

Length 68 m; draft 4.3 m.

Type: Tanker. MMSI: 431002799.

Date/timePositionNaut miles runAvg speedWind from/ knotsBaromVisibWave heightAir tempDewpointWater temp
2018-Feb-25 01:30N 34°47' E 136°44'612.2
2018-Feb-25 00:59N 34°42' E 136°50'812.1
2018-Feb-25 00:21N 34°37' E 136°56'412.2
2018-Feb-24 23:59N 34°34' E 137°00'2710.7
2018-Feb-24 21:25N 34°08' E 136°48'89 9.4
2018-Feb-24 11:55N 33°50' E 135°03'512.8
2018-Feb-24 11:30N 33°54' E 134°59'612.6
2018-Feb-24 11:00N 33°59' E 134°54'712.9
2018-Feb-24 10:30N 34°04' E 134°49'612.9
2018-Feb-24 10:00N 34°08' E 134°44'814.0
2018-Feb-24 09:27N 34°15' E 134°38'612.8
2018-Feb-24 09:00N 34°17' E 134°32'712.6
2018-Feb-24 08:29N 34°20' E 134°25'612.6
2018-Feb-24 08:00N 34°22' E 134°18'  
2018-Feb-20 12:22N 33°60' E 132°45'612.2
2018-Feb-20 11:50N 33°55' E 132°40'412.0
2018-Feb-20 11:30N 33°54' E 132°35'1012.1
2018-Feb-20 10:41N 33°50' E 132°24'511.9
2018-Feb-20 10:16N 33°50' E 132°18'511.8
2018-Feb-20 09:50N 33°49' E 132°12'511.4
2018-Feb-20 09:22N 33°47' E 132°06'1411.5
2018-Feb-20 08:10N 33°46' E 131°50'212.3
2018-Feb-20 07:58N 33°47' E 131°47'612.7
2018-Feb-20 07:29N 33°48' E 131°40'612.8
2018-Feb-20 07:00N 33°49' E 131°33'612.6
2018-Feb-20 06:30N 33°51' E 131°25'612.6
2018-Feb-20 06:00N 33°52' E 131°18'611.6
2018-Feb-20 05:30N 33°54' E 131°11'0 0.4
2018-Feb-20 04:58N 33°54' E 131°11'0 1.0
2018-Feb-20 04:30N 33°55' E 131°12'2 3.0
2018-Feb-20 03:59N 33°56' E 131°11'0 0.0
2018-Feb-20 03:29N 33°56' E 131°11'0 0.0
2018-Feb-20 02:59N 33°56' E 131°11'0 0.0
2018-Feb-20 02:29N 33°56' E 131°11'0 0.0
2018-Feb-20 01:56N 33°56' E 131°11'0 0.0
2018-Feb-20 01:29N 33°56' E 131°11'0 0.0
2018-Feb-20 00:59N 33°56' E 131°11'0 0.0
2018-Feb-20 00:23N 33°56' E 131°11'0 0.8
2018-Feb-20 00:00N 33°56' E 131°11'2 3.2
2018-Feb-19 23:30N 33°54' E 131°11'1 3.0
2018-Feb-19 23:00N 33°55' E 131°09'4 7.6
2018-Feb-19 22:30N 33°58' E 131°10'0 0.4
2018-Feb-19 21:58N 33°58' E 131°10'0 0.0
2018-Feb-19 21:22N 33°58' E 131°10'0 0.0
2018-Feb-19 20:58N 33°58' E 131°10'0 0.0
2018-Feb-19 20:28N 33°58' E 131°10'0 0.0
2018-Feb-19 19:58N 33°58' E 131°10'0 0.0
2018-Feb-19 19:28N 33°58' E 131°10'0 0.0
2018-Feb-19 18:58N 33°58' E 131°10'0 0.0
2018-Feb-19 18:25N 33°58' E 131°10'0 0.0
2018-Feb-19 17:52N 33°58' E 131°10'0 0.0
2018-Feb-19 17:28N 33°58' E 131°10'0 0.0
2018-Feb-19 16:58N 33°58' E 131°10'0 0.0
2018-Feb-19 16:28N 33°58' E 131°10'0 0.0
2018-Feb-19 15:52N 33°58' E 131°10'0 0.0
2018-Feb-19 15:28N 33°58' E 131°10'0 0.0
2018-Feb-19 14:58N 33°58' E 131°10'0 0.0
2018-Feb-19 14:28N 33°58' E 131°10'0 0.0
2018-Feb-19 13:58N 33°58' E 131°10'0 0.0
2018-Feb-19 13:28N 33°58' E 131°10'0 0.0
2018-Feb-19 12:58N 33°58' E 131°10'0 0.0
2018-Feb-19 12:28N 33°58' E 131°10'0 0.0
2018-Feb-19 11:58N 33°58' E 131°10'0 0.0
2018-Feb-19 11:28N 33°58' E 131°10'0 0.0
2018-Feb-19 10:58N 33°58' E 131°10'0 0.0
2018-Feb-19 10:28N 33°58' E 131°10'0 0.0
2018-Feb-19 09:58N 33°58' E 131°10'0 0.0
2018-Feb-19 09:28N 33°58' E 131°10'0 0.0
2018-Feb-19 08:58N 33°58' E 131°10'0 0.0
2018-Feb-19 08:25N 33°58' E 131°10'0 0.0
2018-Feb-19 07:58N 33°58' E 131°10'0 0.0
2018-Feb-19 07:28N 33°58' E 131°10'0 0.0
2018-Feb-19 06:58N 33°58' E 131°10'0 0.0
2018-Feb-19 06:28N 33°58' E 131°10'0 0.0
2018-Feb-19 05:58N 33°58' E 131°10'0 0.0
2018-Feb-19 05:28N 33°58' E 131°10'0 0.0
2018-Feb-19 04:58N 33°58' E 131°10'0 0.0
2018-Feb-19 04:28N 33°58' E 131°10'0 0.0
2018-Feb-19 03:58N 33°58' E 131°10'0 0.0
2018-Feb-19 03:28N 33°58' E 131°10'0 0.0
2018-Feb-19 02:58N 33°58' E 131°10'0 0.0
2018-Feb-19 02:28N 33°58' E 131°10'0 0.0
2018-Feb-19 01:58N 33°58' E 131°10'0 0.0
2018-Feb-19 01:28N 33°58' E 131°10'0 0.0
2018-Feb-19 00:58N 33°58' E 131°10'0 0.0
2018-Feb-19 00:25N 33°58' E 131°10'0 0.0
2018-Feb-18 23:58N 33°58' E 131°10'0 0.0
2018-Feb-18 23:28N 33°58' E 131°10'0 0.0
2018-Feb-18 23:00N 33°58' E 131°10'4 7.7
2018-Feb-18 22:30N 33°55' E 131°09'713.1
2018-Feb-18 22:00N 33°51' E 131°16'713.2
2018-Feb-18 21:30N 33°51' E 131°24'712.9
2018-Feb-18 20:59N 33°50' E 131°32'612.8
2018-Feb-18 20:30N 33°49' E 131°39'812.3
2018-Feb-18 19:54N 33°47' E 131°48'512.4
2018-Feb-18 19:30N 33°46' E 131°54'612.2
2018-Feb-18 19:00N 33°46' E 132°01'713.3
2018-Feb-18 18:30N 33°48' E 132°09'713.3
2018-Feb-18 18:00N 33°50' E 132°16'1213.5
2018-Feb-18 17:05N 33°53' E 132°31'113.3
2018-Feb-18 17:00N 33°53' E 132°32'612.9
2018-Feb-18 16:30N 33°56' E 132°39'612.5
2018-Feb-18 16:00N 34°00' E 132°45'7611.2
2018-Feb-18 09:13N 34°32' E 134°08'1112.1
2018-Feb-18 08:17N 34°38' E 134°20'511.9
2018-Feb-18 07:53N 34°40' E 134°25'412.0
2018-Feb-18 07:30N 34°42' E 134°30'510.5
2018-Feb-18 06:59N 34°46' E 134°35'0 0.0
2018-Feb-18 03:47N 34°46' E 134°35'1 3.5
2018-Feb-18 03:30N 34°45' E 134°36'711.8
2018-Feb-18 02:53N 34°38' E 134°38'511.9
2018-Feb-18 02:30N 34°33' E 134°37'611.6
2018-Feb-18 02:00N 34°28' E 134°38'611.7
2018-Feb-18 01:30N 34°22' E 134°38'711.9
2018-Feb-18 00:57N 34°15' E 134°39'812.6
2018-Feb-18 00:21N 34°09' E 134°44'411.8
2018-Feb-18 00:00N 34°06' E 134°47'611.9
2018-Feb-17 23:30N 34°01' E 134°52'611.8
2018-Feb-17 23:00N 33°57' E 134°57'611.7
2018-Feb-17 22:30N 33°53' E 135°01'611.4
2018-Feb-17 22:00N 33°48' E 135°06'96 8.2
2018-Feb-17 10:25N 34°31' E 136°50'1211.8
2018-Feb-17 09:26N 34°42' E 136°45'512.2
2018-Feb-17 09:00N 34°47' E 136°43'612.1
2018-Feb-17 08:31N 34°52' E 136°42'510.2
2018-Feb-17 08:01N 34°57' E 136°39'0 0.8
2018-Feb-17 07:31N 34°57' E 136°38'0 0.0
2018-Feb-17 05:46N 34°57' E 136°38'0 0.0
2018-Feb-17 05:28N 34°57' E 136°38'0 0.0
2018-Feb-17 04:58N 34°57' E 136°38'0 0.0
2018-Feb-17 04:16N 34°57' E 136°38'0 0.0
2018-Feb-17 03:56N 34°57' E 136°38'1 3.4
2018-Feb-17 03:30N 34°57' E 136°40'1 3.0
2018-Feb-17 03:00N 34°55' E 136°41'611.5
2018-Feb-17 02:30N 34°50' E 136°41'611.1
2018-Feb-17 02:00N 34°45' E 136°44'510.2
2018-Feb-17 01:30N 34°40' E 136°46'510.6
2018-Feb-17 01:00N 34°35' E 136°47'6 9.6
2018-Feb-17 00:21N 34°30' E 136°52'97 8.5
2018-Feb-16 12:56N 33°50' E 135°04'512.4
2018-Feb-16 12:30N 33°54' E 134°60'612.3
2018-Feb-16 12:00N 33°59' E 134°55'612.1
2018-Feb-16 11:30N 34°03' E 134°50'612.4
2018-Feb-16 10:59N 34°08' E 134°44'611.7
2018-Feb-16 10:29N 34°13' E 134°40'611.0
2018-Feb-16 09:58N 34°18' E 134°37'510.6
2018-Feb-16 09:30N 34°22' E 134°36'3 5.9
2018-Feb-16 09:00N 34°21' E 134°33'611.5
2018-Feb-16 08:30N 34°20' E 134°26'611.6
2018-Feb-16 08:00N 34°22' E 134°19'81 3.9
2018-Feb-15 11:16N 34°00' E 132°45'413.1
2018-Feb-15 10:57N 33°57' E 132°42'613.3
2018-Feb-15 10:30N 33°54' E 132°36'1112.6
2018-Feb-15 09:40N 33°50' E 132°24'1112.5
2018-Feb-15 08:49N 33°49' E 132°12'812.0
2018-Feb-15 08:12N 33°45' E 132°04'911.8
2018-Feb-15 07:25N 33°46' E 131°53'512.0
2018-Feb-15 07:00N 33°47' E 131°47'612.1
2018-Feb-15 06:29N 33°48' E 131°40'612.2
2018-Feb-15 06:00N 33°49' E 131°33'612.3
2018-Feb-15 05:30N 33°50' E 131°25'612.2
2018-Feb-15 05:00N 33°51' E 131°18'612.0
2018-Feb-15 04:30N 33°55' E 131°12'2 3.6
2018-Feb-15 04:00N 33°56' E 131°11'0 0.0
2018-Feb-15 03:29N 33°56' E 131°11'0 0.0
2018-Feb-15 02:59N 33°56' E 131°11'0 0.0
2018-Feb-15 02:29N 33°56' E 131°11'0 0.0
2018-Feb-15 01:59N 33°56' E 131°11'  

Dump ship's entire track history